sensor_id;sensor_type;location;lat;lon;timestamp;temperature;humidity
71177;DHT22;58877;51.992;4.504;2023-02-13T00:01:36;9.27;73.38
71177;DHT22;58877;51.992;4.504;2023-02-13T00:04:02;9.24;73.25
71177;DHT22;58877;51.992;4.504;2023-02-13T00:06:29;9.25;73.14
71177;DHT22;58877;51.992;4.504;2023-02-13T00:08:55;9.22;73.29
71177;DHT22;58877;51.992;4.504;2023-02-13T00:11:20;9.21;73.32
71177;DHT22;58877;51.992;4.504;2023-02-13T00:13:46;9.22;73.31
71177;DHT22;58877;51.992;4.504;2023-02-13T00:16:12;9.18;73.48
71177;DHT22;58877;51.992;4.504;2023-02-13T00:18:38;9.24;73.23
71177;DHT22;58877;51.992;4.504;2023-02-13T00:21:09;9.20;73.34
71177;DHT22;58877;51.992;4.504;2023-02-13T00:23:37;9.20;73.28
71177;DHT22;58877;51.992;4.504;2023-02-13T00:26:11;9.21;73.31
71177;DHT22;58877;51.992;4.504;2023-02-13T00:28:37;9.18;73.51
71177;DHT22;58877;51.992;4.504;2023-02-13T00:31:09;9.21;73.39
71177;DHT22;58877;51.992;4.504;2023-02-13T00:33:35;9.17;73.42
71177;DHT22;58877;51.992;4.504;2023-02-13T00:36:04;9.15;73.49
71177;DHT22;58877;51.992;4.504;2023-02-13T00:38:30;9.14;73.48
71177;DHT22;58877;51.992;4.504;2023-02-13T00:40:56;9.14;73.60
71177;DHT22;58877;51.992;4.504;2023-02-13T00:43:21;9.14;73.52
71177;DHT22;58877;51.992;4.504;2023-02-13T00:45:47;9.20;73.64
71177;DHT22;58877;51.992;4.504;2023-02-13T00:48:12;9.22;73.43
71177;DHT22;58877;51.992;4.504;2023-02-13T00:50:38;9.20;73.12
71177;DHT22;58877;51.992;4.504;2023-02-13T00:53:03;9.15;73.52
71177;DHT22;58877;51.992;4.504;2023-02-13T00:55:29;9.14;73.75
71177;DHT22;58877;51.992;4.504;2023-02-13T00:57:55;9.15;73.86
71177;DHT22;58877;51.992;4.504;2023-02-13T01:00:20;9.18;73.96
71177;DHT22;58877;51.992;4.504;2023-02-13T01:02:46;9.18;73.82
71177;DHT22;58877;51.992;4.504;2023-02-13T01:05:13;9.24;72.71
71177;DHT22;58877;51.992;4.504;2023-02-13T01:07:38;9.28;72.74
71177;DHT22;58877;51.992;4.504;2023-02-13T01:10:04;9.22;73.13
71177;DHT22;58877;51.992;4.504;2023-02-13T01:12:30;9.17;73.49
71177;DHT22;58877;51.992;4.504;2023-02-13T01:14:55;9.14;73.59
71177;DHT22;58877;51.992;4.504;2023-02-13T01:17:21;9.12;73.78
71177;DHT22;58877;51.992;4.504;2023-02-13T01:19:47;9.15;73.81
71177;DHT22;58877;51.992;4.504;2023-02-13T01:22:12;9.15;73.78
71177;DHT22;58877;51.992;4.504;2023-02-13T01:24:38;9.12;73.88
71177;DHT22;58877;51.992;4.504;2023-02-13T01:27:03;9.14;73.78
71177;DHT22;58877;51.992;4.504;2023-02-13T01:29:29;9.12;73.84
71177;DHT22;58877;51.992;4.504;2023-02-13T01:31:54;9.12;73.85
71177;DHT22;58877;51.992;4.504;2023-02-13T01:34:20;9.14;73.79
71177;DHT22;58877;51.992;4.504;2023-02-13T01:36:45;9.15;74.00
71177;DHT22;58877;51.992;4.504;2023-02-13T01:39:11;9.21;73.71
71177;DHT22;58877;51.992;4.504;2023-02-13T01:41:38;9.14;73.81
71177;DHT22;58877;51.992;4.504;2023-02-13T01:47:10;9.15;73.92
71177;DHT22;58877;51.992;4.504;2023-02-13T01:49:36;9.17;74.06
71177;DHT22;58877;51.992;4.504;2023-02-13T01:52:02;9.18;74.03
71177;DHT22;58877;51.992;4.504;2023-02-13T01:54:32;9.17;73.99
71177;DHT22;58877;51.992;4.504;2023-02-13T01:57:06;9.17;74.02
71177;DHT22;58877;51.992;4.504;2023-02-13T01:59:43;9.20;74.08
71177;DHT22;58877;51.992;4.504;2023-02-13T02:02:11;9.21;73.92
71177;DHT22;58877;51.992;4.504;2023-02-13T02:04:41;9.20;73.78
71177;DHT22;58877;51.992;4.504;2023-02-13T02:07:29;9.21;73.88
71177;DHT22;58877;51.992;4.504;2023-02-13T02:10:04;9.20;73.95
71177;DHT22;58877;51.992;4.504;2023-02-13T02:15:21;9.20;74.11
71177;DHT22;58877;51.992;4.504;2023-02-13T02:17:47;9.17;74.13
71177;DHT22;58877;51.992;4.504;2023-02-13T02:20:22;9.22;73.85
71177;DHT22;58877;51.992;4.504;2023-02-13T02:40:18;9.12;74.46
71177;DHT22;58877;51.992;4.504;2023-02-13T02:45:32;9.12;74.17
71177;DHT22;58877;51.992;4.504;2023-02-13T02:50:53;9.25;74.03
71177;DHT22;58877;51.992;4.504;2023-02-13T02:53:38;9.18;73.76
71177;DHT22;58877;51.992;4.504;2023-02-13T02:56:33;9.10;74.17
71177;DHT22;58877;51.992;4.504;2023-02-13T02:59:11;9.11;74.18
71177;DHT22;58877;51.992;4.504;2023-02-13T03:01:59;9.18;73.95
71177;DHT22;58877;51.992;4.504;2023-02-13T03:04:52;9.15;73.85
71177;DHT22;58877;51.992;4.504;2023-02-13T03:07:37;9.12;73.97
71177;DHT22;58877;51.992;4.504;2023-02-13T03:10:09;9.10;74.10
71177;DHT22;58877;51.992;4.504;2023-02-13T03:15:44;9.04;74.39
71177;DHT22;58877;51.992;4.504;2023-02-13T03:18:34;9.14;74.26
71177;DHT22;58877;51.992;4.504;2023-02-13T03:33:17;9.14;74.26
71177;DHT22;58877;51.992;4.504;2023-02-13T03:41:50;9.15;73.95
71177;DHT22;58877;51.992;4.504;2023-02-13T03:44:55;9.20;74.00
71177;DHT22;58877;51.992;4.504;2023-02-13T03:47:43;9.12;73.98
71177;DHT22;58877;51.992;4.504;2023-02-13T03:50:12;9.14;73.99
71177;DHT22;58877;51.992;4.504;2023-02-13T03:52:49;9.11;74.01
71177;DHT22;58877;51.992;4.504;2023-02-13T03:55:20;9.11;74.01
71177;DHT22;58877;51.992;4.504;2023-02-13T03:58:15;9.10;73.88
71177;DHT22;58877;51.992;4.504;2023-02-13T04:01:05;9.10;73.95
71177;DHT22;58877;51.992;4.504;2023-02-13T04:06:25;9.04;74.15
71177;DHT22;58877;51.992;4.504;2023-02-13T04:08:52;8.99;74.35
71177;DHT22;58877;51.992;4.504;2023-02-13T04:11:35;8.97;74.54
71177;DHT22;58877;51.992;4.504;2023-02-13T04:14:20;8.97;74.83
71177;DHT22;58877;51.992;4.504;2023-02-13T04:17:05;9.01;74.78
71177;DHT22;58877;51.992;4.504;2023-02-13T04:19:32;8.99;74.83
71177;DHT22;58877;51.992;4.504;2023-02-13T04:22:00;8.96;74.90
71177;DHT22;58877;51.992;4.504;2023-02-13T04:24:27;8.99;74.91
71177;DHT22;58877;51.992;4.504;2023-02-13T04:26:53;8.97;74.93
71177;DHT22;58877;51.992;4.504;2023-02-13T04:29:23;9.01;74.82
71177;DHT22;58877;51.992;4.504;2023-02-13T04:31:50;8.97;74.82
71177;DHT22;58877;51.992;4.504;2023-02-13T04:34:15;8.99;74.82
71177;DHT22;58877;51.992;4.504;2023-02-13T04:36:41;9.00;74.98
71177;DHT22;58877;51.992;4.504;2023-02-13T04:39:08;9.03;75.05
71177;DHT22;58877;51.992;4.504;2023-02-13T04:41:33;8.99;75.21
71177;DHT22;58877;51.992;4.504;2023-02-13T04:43:59;9.03;75.18
71177;DHT22;58877;51.992;4.504;2023-02-13T04:46:24;9.00;75.23
71177;DHT22;58877;51.992;4.504;2023-02-13T04:48:50;8.99;75.35
71177;DHT22;58877;51.992;4.504;2023-02-13T04:51:15;9.03;75.37
71177;DHT22;58877;51.992;4.504;2023-02-13T04:53:41;9.04;75.24
71177;DHT22;58877;51.992;4.504;2023-02-13T04:56:06;9.03;75.27
71177;DHT22;58877;51.992;4.504;2023-02-13T04:58:35;9.01;75.27
71177;DHT22;58877;51.992;4.504;2023-02-13T05:01:01;9.05;75.14
71177;DHT22;58877;51.992;4.504;2023-02-13T05:03:26;9.01;75.18
71177;DHT22;58877;51.992;4.504;2023-02-13T05:05:55;9.00;75.27
71177;DHT22;58877;51.992;4.504;2023-02-13T05:08:20;9.00;75.47
71177;DHT22;58877;51.992;4.504;2023-02-13T05:10:47;9.07;75.16
71177;DHT22;58877;51.992;4.504;2023-02-13T05:13:12;9.04;75.37
71177;DHT22;58877;51.992;4.504;2023-02-13T05:15:39;9.04;75.32
71177;DHT22;58877;51.992;4.504;2023-02-13T05:18:05;9.07;75.30
71177;DHT22;58877;51.992;4.504;2023-02-13T05:20:30;9.08;75.31
71177;DHT22;58877;51.992;4.504;2023-02-13T05:22:56;9.10;75.21
71177;DHT22;58877;51.992;4.504;2023-02-13T05:25:41;9.04;75.51
71177;DHT22;58877;51.992;4.504;2023-02-13T05:28:07;9.03;75.56
71177;DHT22;58877;51.992;4.504;2023-02-13T05:30:51;8.99;75.77
71177;DHT22;58877;51.992;4.504;2023-02-13T05:33:17;8.97;75.90
71177;DHT22;58877;51.992;4.504;2023-02-13T05:35:42;9.04;75.93
71177;DHT22;58877;51.992;4.504;2023-02-13T05:38:08;9.03;75.78
71177;DHT22;58877;51.992;4.504;2023-02-13T05:40:34;9.03;75.75
71177;DHT22;58877;51.992;4.504;2023-02-13T05:42:59;9.04;75.83
71177;DHT22;58877;51.992;4.504;2023-02-13T05:45:24;9.03;75.84
71177;DHT22;58877;51.992;4.504;2023-02-13T05:47:50;9.01;75.90
71177;DHT22;58877;51.992;4.504;2023-02-13T05:50:16;9.03;76.07
71177;DHT22;58877;51.992;4.504;2023-02-13T05:52:41;9.05;75.90
71177;DHT22;58877;51.992;4.504;2023-02-13T05:55:07;9.07;76.06
71177;DHT22;58877;51.992;4.504;2023-02-13T05:57:32;9.03;76.14
71177;DHT22;58877;51.992;4.504;2023-02-13T05:59:58;9.04;76.25
71177;DHT22;58877;51.992;4.504;2023-02-13T06:02:23;9.04;76.33
71177;DHT22;58877;51.992;4.504;2023-02-13T06:04:49;9.03;76.33
71177;DHT22;58877;51.992;4.504;2023-02-13T06:07:14;9.03;76.51
71177;DHT22;58877;51.992;4.504;2023-02-13T06:09:40;9.01;76.59
71177;DHT22;58877;51.992;4.504;2023-02-13T06:12:05;8.99;76.63
71177;DHT22;58877;51.992;4.504;2023-02-13T06:14:31;9.01;76.64
71177;DHT22;58877;51.992;4.504;2023-02-13T06:16:56;8.99;76.76
71177;DHT22;58877;51.992;4.504;2023-02-13T06:19:22;8.96;76.75
71177;DHT22;58877;51.992;4.504;2023-02-13T06:21:48;8.91;76.85
71177;DHT22;58877;51.992;4.504;2023-02-13T06:24:14;8.94;76.96
71177;DHT22;58877;51.992;4.504;2023-02-13T06:26:39;8.91;76.99
71177;DHT22;58877;51.992;4.504;2023-02-13T06:29:04;8.85;77.04
71177;DHT22;58877;51.992;4.504;2023-02-13T06:31:30;8.84;77.13
71177;DHT22;58877;51.992;4.504;2023-02-13T06:33:56;8.80;77.33
71177;DHT22;58877;51.992;4.504;2023-02-13T06:36:21;8.80;77.37
71177;DHT22;58877;51.992;4.504;2023-02-13T06:38:47;8.81;77.35
71177;DHT22;58877;51.992;4.504;2023-02-13T06:52:02;8.81;77.79
71177;DHT22;58877;51.992;4.504;2023-02-13T06:54:28;8.84;77.77
71177;DHT22;58877;51.992;4.504;2023-02-13T06:56:53;8.84;77.81
71177;DHT22;58877;51.992;4.504;2023-02-13T06:59:19;8.87;77.79
71177;DHT22;58877;51.992;4.504;2023-02-13T07:01:45;8.92;77.74
71177;DHT22;58877;51.992;4.504;2023-02-13T07:04:10;8.92;77.68
71177;DHT22;58877;51.992;4.504;2023-02-13T07:06:36;8.91;77.49
71177;DHT22;58877;51.992;4.504;2023-02-13T07:09:02;8.91;77.65
71177;DHT22;58877;51.992;4.504;2023-02-13T07:11:28;8.97;77.62
71177;DHT22;58877;51.992;4.504;2023-02-13T07:13:54;8.96;77.66
71177;DHT22;58877;51.992;4.504;2023-02-13T07:16:19;8.99;77.57
71177;DHT22;58877;51.992;4.504;2023-02-13T07:18:45;8.99;77.65
71177;DHT22;58877;51.992;4.504;2023-02-13T07:21:11;9.03;77.54
71177;DHT22;58877;51.992;4.504;2023-02-13T07:23:36;9.01;77.61
71177;DHT22;58877;51.992;4.504;2023-02-13T07:26:03;9.03;77.69
71177;DHT22;58877;51.992;4.504;2023-02-13T07:28:30;9.04;77.54
71177;DHT22;58877;51.992;4.504;2023-02-13T07:30:56;9.07;77.65
71177;DHT22;58877;51.992;4.504;2023-02-13T07:33:22;9.12;77.61
71177;DHT22;58877;51.992;4.504;2023-02-13T07:35:49;9.11;77.51
71177;DHT22;58877;51.992;4.504;2023-02-13T07:38:15;9.22;77.43
71177;DHT22;58877;51.992;4.504;2023-02-13T07:40:41;9.34;77.30
71177;DHT22;58877;51.992;4.504;2023-02-13T07:43:07;9.35;77.31
71177;DHT22;58877;51.992;4.504;2023-02-13T07:45:32;9.36;76.96
71177;DHT22;58877;51.992;4.504;2023-02-13T07:47:58;9.39;77.02
71177;DHT22;58877;51.992;4.504;2023-02-13T07:50:26;9.39;76.92
71177;DHT22;58877;51.992;4.504;2023-02-13T07:52:57;9.34;76.76
71177;DHT22;58877;51.992;4.504;2023-02-13T07:55:25;9.28;76.65
71177;DHT22;58877;51.992;4.504;2023-02-13T07:57:51;9.25;76.79
71177;DHT22;58877;51.992;4.504;2023-02-13T08:00:18;9.20;76.81
71177;DHT22;58877;51.992;4.504;2023-02-13T08:02:45;9.14;76.84
71177;DHT22;58877;51.992;4.504;2023-02-13T08:05:11;9.12;76.99
71177;DHT22;58877;51.992;4.504;2023-02-13T08:07:37;9.08;77.04
71177;DHT22;58877;51.992;4.504;2023-02-13T08:10:04;8.96;77.41
71177;DHT22;58877;51.992;4.504;2023-02-13T08:12:51;8.97;77.57
71177;DHT22;58877;51.992;4.504;2023-02-13T08:15:17;8.94;77.71
71177;DHT22;58877;51.992;4.504;2023-02-13T08:17:42;8.99;77.73
71177;DHT22;58877;51.992;4.504;2023-02-13T08:20:08;9.03;77.74
71177;DHT22;58877;51.992;4.504;2023-02-13T08:22:38;9.00;77.74
71177;DHT22;58877;51.992;4.504;2023-02-13T08:25:04;8.99;77.84
71177;DHT22;58877;51.992;4.504;2023-02-13T08:27:30;8.96;78.05
71177;DHT22;58877;51.992;4.504;2023-02-13T08:29:56;8.92;78.20
71177;DHT22;58877;51.992;4.504;2023-02-13T08:32:23;9.00;78.28
71177;DHT22;58877;51.992;4.504;2023-02-13T08:34:49;9.01;78.18
71177;DHT22;58877;51.992;4.504;2023-02-13T08:37:15;9.00;78.19
71177;DHT22;58877;51.992;4.504;2023-02-13T08:39:41;9.00;78.23
71177;DHT22;58877;51.992;4.504;2023-02-13T08:42:07;9.05;78.41
71177;DHT22;58877;51.992;4.504;2023-02-13T08:44:32;9.05;78.42
71177;DHT22;58877;51.992;4.504;2023-02-13T08:46:58;9.00;78.38
71177;DHT22;58877;51.992;4.504;2023-02-13T08:49:28;8.92;78.74
71177;DHT22;58877;51.992;4.504;2023-02-13T08:51:54;9.03;78.88
71177;DHT22;58877;51.992;4.504;2023-02-13T08:54:20;9.03;78.68
71177;DHT22;58877;51.992;4.504;2023-02-13T08:56:46;9.10;78.62
71177;DHT22;58877;51.992;4.504;2023-02-13T08:59:12;9.20;78.66
71177;DHT22;58877;51.992;4.504;2023-02-13T09:01:37;9.25;78.52
71177;DHT22;58877;51.992;4.504;2023-02-13T09:04:03;9.30;78.17
71177;DHT22;58877;51.992;4.504;2023-02-13T09:06:29;9.32;77.90
71177;DHT22;58877;51.992;4.504;2023-02-13T09:08:54;9.39;77.84
71177;DHT22;58877;51.992;4.504;2023-02-13T09:11:20;9.41;77.87
71177;DHT22;58877;51.992;4.504;2023-02-13T09:13:49;9.38;77.80
71177;DHT22;58877;51.992;4.504;2023-02-13T09:16:16;9.38;77.87
71177;DHT22;58877;51.992;4.504;2023-02-13T09:18:42;9.39;77.79
71177;DHT22;58877;51.992;4.504;2023-02-13T09:21:10;9.39;77.84
71177;DHT22;58877;51.992;4.504;2023-02-13T09:23:39;9.38;77.81
71177;DHT22;58877;51.992;4.504;2023-02-13T09:26:08;9.44;77.67
71177;DHT22;58877;51.992;4.504;2023-02-13T09:28:35;9.45;77.61
71177;DHT22;58877;51.992;4.504;2023-02-13T09:31:15;9.46;77.35
71177;DHT22;58877;51.992;4.504;2023-02-13T09:33:42;9.48;77.06
71177;DHT22;58877;51.992;4.504;2023-02-13T09:36:14;9.36;77.52
71177;DHT22;58877;51.992;4.504;2023-02-13T09:38:42;9.38;77.70
71177;DHT22;58877;51.992;4.504;2023-02-13T09:41:36;9.36;77.54
71177;DHT22;58877;51.992;4.504;2023-02-13T09:44:27;9.41;77.81
71177;DHT22;58877;51.992;4.504;2023-02-13T09:47:02;9.51;77.55
71177;DHT22;58877;51.992;4.504;2023-02-13T09:49:32;9.56;77.49
71177;DHT22;58877;51.992;4.504;2023-02-13T09:52:00;9.69;77.25
71177;DHT22;58877;51.992;4.504;2023-02-13T09:54:26;9.65;77.01
71177;DHT22;58877;51.992;4.504;2023-02-13T09:57:19;9.65;77.10
71177;DHT22;58877;51.992;4.504;2023-02-13T10:00:04;9.62;76.94
71177;DHT22;58877;51.992;4.504;2023-02-13T10:02:50;9.75;77.07
71177;DHT22;58877;51.992;4.504;2023-02-13T10:05:39;9.82;76.54
71177;DHT22;58877;51.992;4.504;2023-02-13T10:18:42;9.90;76.22
71177;DHT22;58877;51.992;4.504;2023-02-13T10:21:12;9.95;76.39
71177;DHT22;58877;51.992;4.504;2023-02-13T10:23:44;10.03;76.45
71177;DHT22;58877;51.992;4.504;2023-02-13T10:26:24;10.09;76.24
71177;DHT22;58877;51.992;4.504;2023-02-13T10:32:10;10.30;75.39
71177;DHT22;58877;51.992;4.504;2023-02-13T10:34:44;10.44;74.96
71177;DHT22;58877;51.992;4.504;2023-02-13T10:37:20;10.49;74.51
71177;DHT22;58877;51.992;4.504;2023-02-13T10:39:49;10.44;74.64
71177;DHT22;58877;51.992;4.504;2023-02-13T10:42:19;10.51;75.10
71177;DHT22;58877;51.992;4.504;2023-02-13T10:50:35;10.72;74.22
71177;DHT22;58877;51.992;4.504;2023-02-13T10:59:33;10.97;72.81
71177;DHT22;58877;51.992;4.504;2023-02-13T11:04:23;11.07;73.32
71177;DHT22;58877;51.992;4.504;2023-02-13T11:06:57;11.19;72.88
71177;DHT22;58877;51.992;4.504;2023-02-13T11:09:23;11.26;73.02
71177;DHT22;58877;51.992;4.504;2023-02-13T11:11:50;11.34;72.56
71177;DHT22;58877;51.992;4.504;2023-02-13T11:14:24;11.46;72.21
71177;DHT22;58877;51.992;4.504;2023-02-13T11:17:02;11.45;71.63
71177;DHT22;58877;51.992;4.504;2023-02-13T11:19:36;11.39;71.89
71177;DHT22;58877;51.992;4.504;2023-02-13T11:22:23;11.22;71.89
71177;DHT22;58877;51.992;4.504;2023-02-13T11:24:53;11.32;72.60
71177;DHT22;58877;51.992;4.504;2023-02-13T11:27:27;11.48;71.79
71177;DHT22;58877;51.992;4.504;2023-02-13T11:29:57;11.56;71.78
71177;DHT22;58877;51.992;4.504;2023-02-13T11:32:30;11.59;71.14
71177;DHT22;58877;51.992;4.504;2023-02-13T11:34:57;11.45;71.78
71177;DHT22;58877;51.992;4.504;2023-02-13T11:37:26;11.55;71.94
71177;DHT22;58877;51.992;4.504;2023-02-13T11:39:58;11.69;71.77
71177;DHT22;58877;51.992;4.504;2023-02-13T11:42:33;11.75;71.00
71177;DHT22;58877;51.992;4.504;2023-02-13T11:45:20;11.79;70.92
71177;DHT22;58877;51.992;4.504;2023-02-13T11:47:48;11.86;70.76
71177;DHT22;58877;51.992;4.504;2023-02-13T11:50:30;11.91;70.00
71177;DHT22;58877;51.992;4.504;2023-02-13T11:53:06;11.93;69.77
71177;DHT22;58877;51.992;4.504;2023-02-13T11:55:35;11.89;69.35
71177;DHT22;58877;51.992;4.504;2023-02-13T12:00:41;12.03;69.79
71177;DHT22;58877;51.992;4.504;2023-02-13T12:03:29;12.13;69.57
71177;DHT22;58877;51.992;4.504;2023-02-13T12:06:12;12.30;69.40
71177;DHT22;58877;51.992;4.504;2023-02-13T12:08:41;12.36;68.91
71177;DHT22;58877;51.992;4.504;2023-02-13T12:13:42;12.48;68.45
71177;DHT22;58877;51.992;4.504;2023-02-13T12:18:59;12.55;68.60
71177;DHT22;58877;51.992;4.504;2023-02-13T12:27:06;12.73;67.67
71177;DHT22;58877;51.992;4.504;2023-02-13T12:45:59;12.96;66.27
71177;DHT22;58877;51.992;4.504;2023-02-13T12:48:39;12.94;65.91
71177;DHT22;58877;51.992;4.504;2023-02-13T12:51:30;13.02;65.91
71177;DHT22;58877;51.992;4.504;2023-02-13T13:01:53;13.15;65.76
71177;DHT22;58877;51.992;4.504;2023-02-13T13:07:39;13.15;64.74
71177;DHT22;58877;51.992;4.504;2023-02-13T13:12:44;13.22;65.58
71177;DHT22;58877;51.992;4.504;2023-02-13T13:18:25;13.16;63.57
71177;DHT22;58877;51.992;4.504;2023-02-13T13:29:09;13.18;63.59
71177;DHT22;58877;51.992;4.504;2023-02-13T13:31:37;13.25;63.73
71177;DHT22;58877;51.992;4.504;2023-02-13T13:34:15;13.32;63.37
71177;DHT22;58877;51.992;4.504;2023-02-13T13:39:49;13.38;63.06
71177;DHT22;58877;51.992;4.504;2023-02-13T13:43:02;13.38;62.84
71177;DHT22;58877;51.992;4.504;2023-02-13T13:48:35;13.39;62.74
71177;DHT22;58877;51.992;4.504;2023-02-13T13:51:05;13.42;62.72
71177;DHT22;58877;51.992;4.504;2023-02-13T13:53:31;13.43;62.71
71177;DHT22;58877;51.992;4.504;2023-02-13T13:56:04;13.48;63.10
71177;DHT22;58877;51.992;4.504;2023-02-13T14:03:51;13.59;62.13
71177;DHT22;58877;51.992;4.504;2023-02-13T14:06:23;13.56;61.78
71177;DHT22;58877;51.992;4.504;2023-02-13T14:09:02;13.50;62.55
71177;DHT22;58877;51.992;4.504;2023-02-13T14:11:36;13.49;62.68
71177;DHT22;58877;51.992;4.504;2023-02-13T14:16:55;13.62;62.63
71177;DHT22;58877;51.992;4.504;2023-02-13T14:19:30;13.55;62.05
71177;DHT22;58877;51.992;4.504;2023-02-13T14:22:33;13.49;62.20
71177;DHT22;58877;51.992;4.504;2023-02-13T14:25:03;13.50;62.36
71177;DHT22;58877;51.992;4.504;2023-02-13T14:27:40;13.49;62.68
71177;DHT22;58877;51.992;4.504;2023-02-13T14:30:26;13.45;62.28
71177;DHT22;58877;51.992;4.504;2023-02-13T14:32:53;13.43;61.90
71177;DHT22;58877;51.992;4.504;2023-02-13T14:35:26;13.45;61.81
71177;DHT22;58877;51.992;4.504;2023-02-13T14:45:45;13.49;61.12
71177;DHT22;58877;51.992;4.504;2023-02-13T14:48:13;13.56;61.21
71177;DHT22;58877;51.992;4.504;2023-02-13T14:50:47;13.56;61.58
71177;DHT22;58877;51.992;4.504;2023-02-13T14:53:27;13.56;62.14
71177;DHT22;58877;51.992;4.504;2023-02-13T14:56:05;13.53;62.35
71177;DHT22;58877;51.992;4.504;2023-02-13T14:58:35;13.53;62.64
71177;DHT22;58877;51.992;4.504;2023-02-13T15:01:30;13.65;62.86
71177;DHT22;58877;51.992;4.504;2023-02-13T15:06:37;15.43;57.99
71177;DHT22;58877;51.992;4.504;2023-02-13T15:09:18;16.14;55.15
71177;DHT22;58877;51.992;4.504;2023-02-13T15:11:45;16.51;53.40
71177;DHT22;58877;51.992;4.504;2023-02-13T15:14:31;16.58;52.99
71177;DHT22;58877;51.992;4.504;2023-02-13T15:17:19;16.85;52.60
71177;DHT22;58877;51.992;4.504;2023-02-13T15:19:52;17.23;51.69
71177;DHT22;58877;51.992;4.504;2023-02-13T15:22:41;17.42;50.84
71177;DHT22;58877;51.992;4.504;2023-02-13T15:28:02;17.69;50.40
71177;DHT22;58877;51.992;4.504;2023-02-13T15:30:34;17.95;49.27
71177;DHT22;58877;51.992;4.504;2023-02-13T15:33:18;17.85;49.22
71177;DHT22;58877;51.992;4.504;2023-02-13T15:35:45;17.73;49.36
71177;DHT22;58877;51.992;4.504;2023-02-13T15:38:32;17.53;49.97
71177;DHT22;58877;51.992;4.504;2023-02-13T15:41:06;16.82;51.68
71177;DHT22;58877;51.992;4.504;2023-02-13T15:43:43;16.18;53.58
71177;DHT22;58877;51.992;4.504;2023-02-13T15:46:26;15.40;55.61
71177;DHT22;58877;51.992;4.504;2023-02-13T15:48:54;14.91;57.09
71177;DHT22;58877;51.992;4.504;2023-02-13T15:51:24;14.48;58.39
71177;DHT22;58877;51.992;4.504;2023-02-13T15:54:00;14.06;59.58
71177;DHT22;58877;51.992;4.504;2023-02-13T15:56:28;13.87;60.64
71177;DHT22;58877;51.992;4.504;2023-02-13T15:58:57;13.69;61.16
71177;DHT22;58877;51.992;4.504;2023-02-13T16:01:23;13.46;62.09
71177;DHT22;58877;51.992;4.504;2023-02-13T16:03:55;13.29;63.00
71177;DHT22;58877;51.992;4.504;2023-02-13T16:06:23;13.11;63.54
71177;DHT22;58877;51.992;4.504;2023-02-13T16:08:57;12.99;64.08
71177;DHT22;58877;51.992;4.504;2023-02-13T16:11:43;12.88;64.30
71177;DHT22;58877;51.992;4.504;2023-02-13T16:14:23;12.84;64.55
71177;DHT22;58877;51.992;4.504;2023-02-13T16:19:52;12.63;65.30
71177;DHT22;58877;51.992;4.504;2023-02-13T16:25:08;12.41;65.84
71177;DHT22;58877;51.992;4.504;2023-02-13T16:27:53;12.34;66.08
71177;DHT22;58877;51.992;4.504;2023-02-13T16:30:40;12.23;66.16
71177;DHT22;58877;51.992;4.504;2023-02-13T16:51:36;11.56;67.99
71177;DHT22;58877;51.992;4.504;2023-02-13T16:56:48;11.32;68.53
71177;DHT22;58877;51.992;4.504;2023-02-13T17:04:35;11.04;69.51
71177;DHT22;58877;51.992;4.504;2023-02-13T17:07:06;10.94;69.42
71177;DHT22;58877;51.992;4.504;2023-02-13T17:09:35;10.87;69.60
71177;DHT22;58877;51.992;4.504;2023-02-13T17:12:01;10.84;69.85
71177;DHT22;58877;51.992;4.504;2023-02-13T17:14:26;10.77;70.10
71177;DHT22;58877;51.992;4.504;2023-02-13T17:16:52;10.65;70.53
71177;DHT22;58877;51.992;4.504;2023-02-13T17:19:18;10.57;70.89
71177;DHT22;58877;51.992;4.504;2023-02-13T17:21:43;10.47;70.95
71177;DHT22;58877;51.992;4.504;2023-02-13T17:24:16;10.37;71.32
71177;DHT22;58877;51.992;4.504;2023-02-13T17:26:42;10.30;71.67
71177;DHT22;58877;51.992;4.504;2023-02-13T17:29:08;10.27;71.89
71177;DHT22;58877;51.992;4.504;2023-02-13T17:31:34;10.20;72.19
71177;DHT22;58877;51.992;4.504;2023-02-13T17:34:00;10.20;72.21
71177;DHT22;58877;51.992;4.504;2023-02-13T17:36:26;10.20;72.42
71177;DHT22;58877;51.992;4.504;2023-02-13T17:38:52;10.17;72.46
71177;DHT22;58877;51.992;4.504;2023-02-13T17:41:20;10.12;72.65
71177;DHT22;58877;51.992;4.504;2023-02-13T17:43:46;10.03;72.88
71177;DHT22;58877;51.992;4.504;2023-02-13T17:46:11;9.95;72.90
71177;DHT22;58877;51.992;4.504;2023-02-13T17:48:39;9.90;73.04
71177;DHT22;58877;51.992;4.504;2023-02-13T17:51:05;9.85;73.26
71177;DHT22;58877;51.992;4.504;2023-02-13T17:53:34;9.74;73.66
71177;DHT22;58877;51.992;4.504;2023-02-13T17:56:01;9.69;73.92
71177;DHT22;58877;51.992;4.504;2023-02-13T17:58:26;9.61;73.98
71177;DHT22;58877;51.992;4.504;2023-02-13T18:00:52;9.54;74.32
71177;DHT22;58877;51.992;4.504;2023-02-13T18:03:18;9.46;74.57
71177;DHT22;58877;51.992;4.504;2023-02-13T18:05:46;9.42;74.63
71177;DHT22;58877;51.992;4.504;2023-02-13T18:08:12;9.36;74.76
71177;DHT22;58877;51.992;4.504;2023-02-13T18:10:38;9.34;75.01
71177;DHT22;58877;51.992;4.504;2023-02-13T18:13:04;9.27;75.05
71177;DHT22;58877;51.992;4.504;2023-02-13T18:15:34;9.21;75.27
71177;DHT22;58877;51.992;4.504;2023-02-13T18:18:00;9.12;75.39
71177;DHT22;58877;51.992;4.504;2023-02-13T18:20:26;9.04;75.74
71177;DHT22;58877;51.992;4.504;2023-02-13T18:22:52;8.99;75.70
71177;DHT22;58877;51.992;4.504;2023-02-13T18:25:19;8.90;75.82
71177;DHT22;58877;51.992;4.504;2023-02-13T18:27:45;8.85;76.14
71177;DHT22;58877;51.992;4.504;2023-02-13T18:30:13;8.81;76.30
71177;DHT22;58877;51.992;4.504;2023-02-13T18:32:40;8.79;76.63
71177;DHT22;58877;51.992;4.504;2023-02-13T18:35:06;8.73;76.48
71177;DHT22;58877;51.992;4.504;2023-02-13T18:37:33;8.67;76.67
71177;DHT22;58877;51.992;4.504;2023-02-13T18:39:59;8.60;76.72
71177;DHT22;58877;51.992;4.504;2023-02-13T18:42:24;8.61;77.41
71177;DHT22;58877;51.992;4.504;2023-02-13T18:44:50;8.71;78.62
71177;DHT22;58877;51.992;4.504;2023-02-13T18:47:16;8.88;78.68
71177;DHT22;58877;51.992;4.504;2023-02-13T18:49:42;8.85;78.31
71177;DHT22;58877;51.992;4.504;2023-02-13T18:52:11;8.79;78.18
71177;DHT22;58877;51.992;4.504;2023-02-13T18:54:37;8.74;78.14
71177;DHT22;58877;51.992;4.504;2023-02-13T18:57:03;8.77;78.33
71177;DHT22;58877;51.992;4.504;2023-02-13T18:59:31;8.64;77.86
71177;DHT22;58877;51.992;4.504;2023-02-13T19:01:57;8.63;78.18
71177;DHT22;58877;51.992;4.504;2023-02-13T19:04:23;8.63;78.48
71177;DHT22;58877;51.992;4.504;2023-02-13T19:06:49;8.59;78.55
71177;DHT22;58877;51.992;4.504;2023-02-13T19:09:15;8.54;78.26
71177;DHT22;58877;51.992;4.504;2023-02-13T19:11:42;8.43;77.83
71177;DHT22;58877;51.992;4.504;2023-02-13T19:14:29;8.26;77.68
71177;DHT22;58877;51.992;4.504;2023-02-13T19:17:00;8.16;77.60
71177;DHT22;58877;51.992;4.504;2023-02-13T19:19:26;8.12;77.58
71177;DHT22;58877;51.992;4.504;2023-02-13T19:21:52;8.02;77.53
71177;DHT22;58877;51.992;4.504;2023-02-13T19:24:17;7.96;77.58
71177;DHT22;58877;51.992;4.504;2023-02-13T19:26:43;7.88;77.67
71177;DHT22;58877;51.992;4.504;2023-02-13T19:29:10;7.79;77.69